LFRZ/SNR METAR and TAF weather

Enter ICAO airport designator
Station Type Date Time Source
LFRZ METAR 2021/04/14 20:00 UTC NOAA

LFRZ 142000Z AUTO 04006KT CAVOK 08/M01 Q1028 NOSIG


Station Type Date Time Source
LFRZ Decoded METAR 2021/04/14 20:00 UTC NOAA

St-Nazaire, France (LFRZ) 47-19N 002-10W 4M
Apr 14, 2021 - 04:00 PM EDT / 2021.04.14 2000 UTC
Wind: from the NE (040 degrees) at 7 MPH (6 KT):0
Visibility: greater than 7 mile(s):0
Temperature: 46 F (8 C)
Dew Point: 30 F (-1 C)
Relative Humidity: 52%
Pressure (altimeter): 30.36 in. Hg (1028 hPa)
ob: LFRZ 142000Z AUTO 04006KT CAVOK 08/M01 Q1028 NOSIG
cycle: 20

Station Type Date Time Source
LFRZ TAF 2021/04/14 18:21 UTC NOAA

TAF LFRZ 141700Z 1418/1518 06012KT CAVOK
TEMPO 1512/1518 05010G21KT

Example: see airport list